Time;durP1;ratioP1;P1;durP2;ratioP2;P2;SDS_P1;SDS_P2;PMS_P1;PMS_P2;Temp;Humidity;BMP_temperature;BMP_pressure;BME280_temperature;BME280_humidity;BME280_pressure;Samples;Min_cycle;Max_cycle;Signal;HPM_P1;HPM_P2
2023/03/17 00:00:33;;;;;;;3.60;2.45;;;;;;;-146.27;67.77;48349.78;5074549;28;20032;-71
2023/03/17 00:02:59;;;;;;;4.35;2.40;;;;;;;-146.27;68.11;48367.72;5088520;28;20024;-71
2023/03/17 00:05:29;;;;;;;3.20;2.35;;;;;;;-146.27;68.24;48335.84;5086597;28;20525;-72
2023/03/17 00:08:00;;;;;;;5.95;2.45;;;;;;;-146.27;68.86;48355.78;5087252;28;20127;-71
2023/03/17 00:10:26;;;;;;;3.67;2.60;;;;;;;-146.27;69.12;48331.88;5080541;28;20032;-72
2023/03/17 00:12:54;;;;;;;3.85;2.13;;;;;;;-146.27;69.22;48337.84;5083426;28;20030;-74
2023/03/17 00:15:21;;;;;;;6.28;2.83;;;;;;;-146.27;69.52;48375.69;5086124;28;20484;-71
2023/03/17 00:17:48;;;;;;;3.97;2.38;;;;;;;-146.27;69.35;48383.66;5089529;28;20023;-72
2023/03/17 00:20:34;;;;;;;7.70;3.03;;;;;;;-146.27;69.77;48355.78;5090233;28;20036;-72
2023/03/17 00:23:04;;;;;;;4.93;2.58;;;;;;;-146.27;70.32;48335.84;5083336;28;20102;-71
2023/03/17 00:25:33;;;;;;;4.75;2.58;;;;;;;-146.27;70.26;48347.81;5075670;28;20032;-71
2023/03/17 00:28:00;;;;;;;7.95;3.10;;;;;;;-146.27;71.28;48353.78;5085141;28;20026;-72
2023/03/17 00:30:27;;;;;;;5.30;2.38;;;;;;;-146.27;71.42;48365.72;5076021;28;20024;-71
2023/03/17 00:32:56;;;;;;;4.50;2.75;;;;;;;-146.27;71.81;48379.66;5090576;28;20533;-71
2023/03/17 00:35:27;;;;;;;5.97;2.97;;;;;;;-146.27;72.21;48335.84;5084436;28;20046;-72
2023/03/17 00:37:55;;;;;;;6.53;2.72;;;;;;;-146.27;72.46;48351.78;5084803;28;20480;-72
2023/03/17 00:40:28;;;;;;;5.05;2.92;;;;;;;-146.27;72.50;48339.84;5090770;28;20064;-72
2023/03/17 00:42:53;;;;;;;5.88;3.20;;;;;;;-146.27;73.03;48343.81;5088874;28;20071;-72
2023/03/17 00:45:20;;;;;;;4.60;2.65;;;;;;;-146.27;73.78;48355.78;5075761;28;20178;-72
2023/03/17 00:47:48;;;;;;;3.97;2.75;;;;;;;-146.27;74.27;48375.69;5087396;28;20025;-71
2023/03/17 00:50:23;;;;;;;4.68;2.70;;;;;;;-146.27;74.88;48331.88;5082511;28;20485;-72
2023/03/17 00:52:50;;;;;;;4.65;2.78;;;;;;;-146.27;75.19;48345.81;5094248;28;20028;-72
2023/03/17 00:55:16;;;;;;;2.92;2.30;;;;;;;-146.27;75.35;48411.53;5090295;28;20070;-71
2023/03/17 00:57:41;;;;;;;7.45;3.17;;;;;;;-146.27;75.50;48339.84;5090218;28;20070;-72
2023/03/17 01:00:28;;;;;;;6.93;3.60;;;;;;;-146.27;75.85;48367.72;5085308;28;20060;-72
2023/03/17 01:02:55;;;;;;;5.75;3.03;;;;;;;-146.27;76.36;48353.78;5092053;28;20028;-72
2023/03/17 01:05:23;;;;;;;5.25;2.67;;;;;;;-146.27;76.88;48329.88;5091016;28;20028;-72
2023/03/17 01:07:51;;;;;;;9.55;3.15;;;;;;;-146.27;76.67;48355.78;5073388;28;20056;-72
2023/03/17 01:10:24;;;;;;;9.30;3.30;;;;;;;-146.27;77.09;48371.69;5081484;28;20071;-72
2023/03/17 01:12:51;;;;;;;6.63;3.28;;;;;;;-146.27;77.41;48351.78;5085987;28;20028;-71
2023/03/17 01:15:18;;;;;;;5.43;3.42;;;;;;;-146.27;76.99;48339.84;5089253;28;20107;-72
2023/03/17 01:17:44;;;;;;;4.35;3.20;;;;;;;-146.27;77.32;48300.00;5073601;28;20470;-72
2023/03/17 01:20:18;;;;;;;5.00;2.85;;;;;;;-146.27;77.69;48355.78;5087729;28;20391;-71
2023/03/17 01:22:44;;;;;;;4.20;2.88;;;;;;;-146.27;77.71;48377.69;5088546;28;20032;-73
2023/03/17 01:25:10;;;;;;;4.50;2.60;;;;;;;-146.27;78.00;48339.84;5085002;28;20031;-72
2023/03/17 01:27:37;;;;;;;7.03;3.40;;;;;;;-146.27;78.04;48331.88;5081789;28;20024;-73
2023/03/17 01:30:08;;;;;;;5.93;3.13;;;;;;;-146.27;77.71;48381.66;5078105;28;20066;-72
2023/03/17 01:32:33;;;;;;;4.72;2.80;;;;;;;-146.27;78.01;48367.72;5072390;28;20555;-73
2023/03/17 01:34:58;;;;;;;8.82;3.33;;;;;;;-146.27;78.25;48339.84;5072279;28;20150;-72
2023/03/17 01:37:24;;;;;;;4.57;2.58;;;;;;;-146.27;78.52;48371.69;5073742;28;20066;-72
2023/03/17 01:39:51;;;;;;;4.43;2.78;;;;;;;-146.27;78.57;48387.63;5079667;28;20077;-72
2023/03/17 01:42:16;;;;;;;3.92;2.80;;;;;;;-146.27;78.76;48381.66;5077597;28;20029;-72
2023/03/17 01:44:56;;;;;;;5.57;3.13;;;;;;;-146.27;79.02;48339.84;5079831;28;20020;-72
2023/03/17 01:47:25;;;;;;;6.20;3.03;;;;;;;-146.27;79.15;48359.75;5082269;28;20078;-72
2023/03/17 01:49:51;;;;;;;6.70;2.63;;;;;;;-146.27;79.79;48325.91;5089210;28;20107;-72
2023/03/17 01:52:20;;;;;;;3.63;2.58;;;;;;;-146.27;79.93;48351.78;5082049;28;20094;-73
2023/03/17 01:55:09;;;;;;;6.13;3.03;;;;;;;-146.27;79.88;48359.75;5077106;28;20020;-72
2023/03/17 01:57:43;;;;;;;6.22;2.70;;;;;;;-146.27;80.13;48307.97;5081306;28;20521;-72
2023/03/17 02:00:16;;;;;;;5.20;2.95;;;;;;;-146.27;79.77;48351.78;5086689;28;20031;-72
2023/03/17 02:02:48;;;;;;;3.85;2.90;;;;;;;-146.27;79.82;48347.81;5086410;28;20464;-72
2023/03/17 02:05:17;;;;;;;3.95;2.80;;;;;;;-146.27;79.98;48353.78;5086919;28;20029;-73
2023/03/17 02:07:43;;;;;;;4.65;2.78;;;;;;;-146.27;80.15;48401.56;5078027;28;20454;-72
2023/03/17 02:10:11;;;;;;;6.93;3.13;;;;;;;-146.27;80.37;48379.66;5075820;28;20479;-71
2023/03/17 02:12:40;;;;;;;5.68;3.47;;;;;;;-146.27;80.37;48355.78;5072333;28;20534;-71
2023/03/17 02:15:06;;;;;;;5.93;2.78;;;;;;;-146.27;80.57;48347.81;5075715;28;20024;-72
2023/03/17 02:17:32;;;;;;;4.35;2.90;;;;;;;-146.27;80.38;48373.69;5072129;28;20036;-72
2023/03/17 02:20:18;;;;;;;10.80;3.25;;;;;;;-146.27;80.11;48321.91;5081531;28;20045;-72
2023/03/17 02:22:48;;;;;;;3.92;2.55;;;;;;;-146.27;79.93;48367.72;5065678;28;20068;-72
2023/03/17 02:25:16;;;;;;;5.82;2.75;;;;;;;-146.27;79.80;48351.78;5083717;28;20443;-72
2023/03/17 02:27:45;;;;;;;4.68;2.80;;;;;;;-146.27;79.93;48315.94;5090124;28;20024;-71
2023/03/17 02:30:15;;;;;;;5.90;2.80;;;;;;;-146.27;79.94;48371.69;5078327;28;20031;-71
2023/03/17 02:32:40;;;;;;;5.18;2.33;;;;;;;-146.27;79.80;48377.69;5095312;28;20053;-73
2023/03/17 02:35:07;;;;;;;5.90;2.70;;;;;;;-146.27;79.60;48371.69;5093911;28;20057;-73
2023/03/17 02:37:33;;;;;;;3.55;2.45;;;;;;;-146.27;79.33;48399.59;5081081;28;20056;-72
2023/03/17 02:40:00;;;;;;;4.05;2.60;;;;;;;-146.27;79.30;48359.75;5076853;28;20039;-72
2023/03/17 02:42:26;;;;;;;6.32;2.50;;;;;;;-146.27;79.30;48351.78;5084005;28;20044;-72
2023/03/17 02:44:52;;;;;;;3.83;2.50;;;;;;;-146.27;78.89;48375.69;5081905;28;20028;-71
2023/03/17 02:47:18;;;;;;;4.03;2.42;;;;;;;-146.27;78.74;48331.88;5082768;28;20031;-71
2023/03/17 02:49:43;;;;;;;3.40;2.60;;;;;;;-146.27;78.87;48335.84;5091366;28;20476;-72
2023/03/17 02:52:09;;;;;;;3.47;2.22;;;;;;;-146.27;78.74;48343.81;5074841;28;20035;-72
2023/03/17 02:54:34;;;;;;;4.07;2.45;;;;;;;-146.27;78.65;48355.78;5080387;28;20032;-72
2023/03/17 02:57:00;;;;;;;5.72;2.65;;;;;;;-146.27;78.41;48347.81;5087560;28;20047;-72
2023/03/17 02:59:26;;;;;;;6.45;2.38;;;;;;;-146.27;78.27;48307.97;5083619;28;20029;-72
2023/03/17 03:01:52;;;;;;;3.50;2.08;;;;;;;-146.27;78.04;48335.84;5090523;28;20387;-73
2023/03/17 03:04:18;;;;;;;3.10;2.25;;;;;;;-146.27;77.78;48343.81;5085801;28;20483;-73
2023/03/17 03:06:44;;;;;;;4.75;2.28;;;;;;;-146.27;77.59;48367.72;5090288;28;20236;-72
2023/03/17 03:09:10;;;;;;;6.28;2.42;;;;;;;-146.27;77.44;48335.84;5082682;28;20107;-72
2023/03/17 03:11:37;;;;;;;3.95;2.25;;;;;;;-146.27;77.12;48331.88;5091003;28;20024;-72
2023/03/17 03:14:02;;;;;;;5.55;2.20;;;;;;;-146.27;77.26;48351.78;5089516;28;20044;-72
2023/03/17 03:16:28;;;;;;;7.10;2.00;;;;;;;-146.27;77.14;48389.63;5075157;28;20114;-72
2023/03/17 03:18:53;;;;;;;5.03;2.53;;;;;;;-146.27;76.97;48349.78;5077109;28;20481;-73
2023/03/17 03:21:19;;;;;;;3.67;2.30;;;;;;;-146.27;77.13;48347.81;5090742;28;20028;-72
2023/03/17 03:23:44;;;;;;;3.78;2.05;;;;;;;-146.27;77.23;48341.81;5085327;28;20537;-73
2023/03/17 03:26:11;;;;;;;4.20;2.40;;;;;;;-146.27;77.62;48339.84;5094000;28;20166;-73
2023/03/17 03:28:36;;;;;;;4.28;2.33;;;;;;;-146.27;77.72;48361.75;5093247;28;20020;-73
2023/03/17 03:31:02;;;;;;;4.88;2.47;;;;;;;-146.27;79.77;48353.78;5089578;28;20024;-73
2023/03/17 03:33:27;;;;;;;6.88;2.92;;;;;;;-146.27;80.94;48355.78;5094136;28;20517;-74
2023/03/17 03:35:53;;;;;;;3.90;2.30;;;;;;;-146.27;80.45;48357.75;5094687;28;20030;-72
2023/03/17 03:38:18;;;;;;;3.47;2.40;;;;;;;-146.27;79.96;48347.81;5092309;28;20025;-72
2023/03/17 03:40:44;;;;;;;5.32;2.80;;;;;;;-146.27;80.17;48357.75;5094100;28;20416;-72
2023/03/17 03:43:09;;;;;;;4.13;2.60;;;;;;;-146.27;80.19;48339.84;5091119;28;20024;-71
2023/03/17 03:45:35;;;;;;;5.18;2.90;;;;;;;-146.27;80.05;48339.84;5091880;28;20494;-70
2023/03/17 03:48:00;;;;;;;4.72;2.40;;;;;;;-146.27;80.13;48365.72;5086251;28;20112;-72
2023/03/17 03:50:26;;;;;;;5.03;2.97;;;;;;;-146.27;80.34;48357.75;5073997;28;20035;-72
2023/03/17 03:52:51;;;;;;;4.95;2.03;;;;;;;-146.27;80.55;48355.78;5076413;28;20036;-71
2023/03/17 03:55:17;;;;;;;7.05;2.65;;;;;;;-146.27;80.70;48373.69;5084939;28;20107;-72
2023/03/17 03:57:42;;;;;;;4.25;2.42;;;;;;;-146.27;80.62;48383.66;5085009;28;20468;-72
2023/03/17 04:00:09;;;;;;;6.55;2.65;;;;;;;-146.27;80.68;48351.78;5078337;28;20502;-72
2023/03/17 04:02:35;;;;;;;4.25;2.47;;;;;;;-146.27;80.95;48375.69;5077727;28;20428;-72
2023/03/17 04:05:01;;;;;;;3.50;2.05;;;;;;;-146.27;81.00;48351.78;5077558;28;20060;-72
2023/03/17 04:07:27;;;;;;;2.97;2.10;;;;;;;-146.27;81.00;48369.72;5074164;28;20059;-72
2023/03/17 04:09:52;;;;;;;8.45;2.30;;;;;;;-146.27;81.00;48347.81;5077602;28;20029;-72
2023/03/17 04:12:18;;;;;;;3.90;2.30;;;;;;;-146.27;80.92;48333.88;5078294;28;20523;-72
2023/03/17 04:14:44;;;;;;;4.22;2.40;;;;;;;-146.27;80.70;48331.88;5082028;28;20456;-70
2023/03/17 04:17:13;;;;;;;2.97;2.20;;;;;;;-146.27;80.79;48359.75;5089379;28;20063;-72
2023/03/17 04:19:39;;;;;;;3.47;2.25;;;;;;;-146.27;81.54;48359.75;5083184;28;20078;-72
2023/03/17 04:22:06;;;;;;;3.85;2.40;;;;;;;-146.27;81.08;48379.66;5087815;28;20086;-71
2023/03/17 04:24:32;;;;;;;4.60;2.45;;;;;;;-146.27;80.89;48363.75;5091510;28;20020;-72
2023/03/17 04:26:57;;;;;;;4.03;2.25;;;;;;;-146.27;80.51;48347.81;5088813;28;20038;-72
2023/03/17 04:29:22;;;;;;;2.13;1.80;;;;;;;-146.27;80.20;48357.75;5090703;28;20028;-71
2023/03/17 04:31:48;;;;;;;3.45;1.90;;;;;;;-146.27;80.05;48337.84;5082614;28;20032;-72
2023/03/17 04:34:16;;;;;;;4.38;2.25;;;;;;;-146.27;79.78;48355.78;5090031;28;20020;-72
2023/03/17 04:36:44;;;;;;;4.45;2.15;;;;;;;-146.27;79.68;48331.88;5074778;28;20032;-71
2023/03/17 04:39:09;;;;;;;6.38;1.88;;;;;;;-146.27;79.50;48353.78;5091099;28;20036;-71
2023/03/17 04:41:34;;;;;;;4.38;2.17;;;;;;;-146.27;79.35;48357.75;5086989;28;20532;-71
2023/03/17 04:44:00;;;;;;;6.13;2.22;;;;;;;-146.27;79.50;48357.75;5078363;28;20255;-72
2023/03/17 04:46:26;;;;;;;2.53;1.83;;;;;;;-146.27;79.69;48365.72;5089161;28;20027;-73
2023/03/17 04:48:52;;;;;;;7.28;2.05;;;;;;;-146.27;79.23;48391.63;5081305;28;20023;-73
2023/03/17 04:51:17;;;;;;;4.88;2.13;;;;;;;-146.27;78.89;48401.56;5078182;28;20024;-72
2023/03/17 04:53:43;;;;;;;4.20;2.00;;;;;;;-146.27;78.90;48367.72;5093097;28;20434;-72
2023/03/17 04:56:09;;;;;;;3.28;1.90;;;;;;;-146.27;78.11;48349.78;5081882;28;20107;-70
2023/03/17 04:58:35;;;;;;;6.22;2.83;;;;;;;-146.27;77.51;48343.81;5086361;28;20074;-72
2023/03/17 05:01:02;;;;;;;2.85;1.77;;;;;;;-146.27;77.71;48331.88;5077156;28;20024;-71
2023/03/17 05:03:29;;;;;;;6.57;2.10;;;;;;;-146.27;77.26;48347.81;5076382;28;20446;-72
2023/03/17 05:05:56;;;;;;;5.43;2.30;;;;;;;-146.27;76.57;48367.72;5084597;28;20476;-71
2023/03/17 05:08:21;;;;;;;2.42;1.83;;;;;;;-146.27;76.62;48369.72;5082170;28;20055;-71
2023/03/17 05:10:47;;;;;;;4.72;1.90;;;;;;;-146.27;77.21;48355.78;5072850;28;20032;-72
2023/03/17 05:13:12;;;;;;;3.92;2.00;;;;;;;-146.27;78.60;48363.75;5080944;28;20042;-72
2023/03/17 05:15:39;;;;;;;8.13;3.17;;;;;;;-146.27;78.43;48363.75;5092281;28;20107;-73
2023/03/17 05:18:04;;;;;;;3.70;1.98;;;;;;;-146.27;79.38;48375.69;5088931;28;20042;-72
2023/03/17 05:20:30;;;;;;;3.70;1.90;;;;;;;-146.27;80.42;48347.81;5082400;28;20028;-72
2023/03/17 05:22:55;;;;;;;3.75;2.33;;;;;;;-146.27;82.26;48375.69;5076873;28;20078;-72
2023/03/17 05:25:21;;;;;;;3.40;2.20;;;;;;;-146.27;82.28;48365.72;5078834;28;20036;-72
2023/03/17 05:27:46;;;;;;;4.13;2.28;;;;;;;-146.27;82.25;48363.75;5092537;28;20027;-71
2023/03/17 05:30:12;;;;;;;4.03;2.28;;;;;;;-146.27;81.15;48367.72;5075024;28;20108;-72
2023/03/17 05:32:37;;;;;;;3.83;2.72;;;;;;;-146.27;80.80;48363.75;5077861;28;20472;-72
2023/03/17 05:35:03;;;;;;;3.50;2.10;;;;;;;-146.27;80.72;48361.75;5088644;28;21216;-72
2023/03/17 05:37:28;;;;;;;4.40;2.15;;;;;;;-146.27;80.89;48321.91;5074146;28;20028;-71
2023/03/17 05:39:53;;;;;;;5.65;2.08;;;;;;;-146.27;81.20;48375.69;5077119;28;20388;-72
2023/03/17 05:42:19;;;;;;;5.53;2.40;;;;;;;-146.27;81.48;48327.88;5089045;28;20107;-71
2023/03/17 05:44:44;;;;;;;5.28;2.10;;;;;;;-146.27;81.57;48363.75;5090051;28;20077;-72
2023/03/17 05:47:10;;;;;;;3.47;1.70;;;;;;;-146.27;81.63;48339.84;5081063;28;20662;-72
2023/03/17 05:49:35;;;;;;;3.90;2.22;;;;;;;-146.27;81.64;48363.75;5077578;28;20028;-72
2023/03/17 05:52:01;;;;;;;7.78;2.05;;;;;;;-146.27;81.95;48367.72;5076404;28;20028;-72
2023/03/17 05:54:27;;;;;;;6.13;2.70;;;;;;;-146.27;82.29;48369.72;5087375;28;20105;-74
2023/03/17 05:56:52;;;;;;;4.45;2.72;;;;;;;-146.27;82.86;48365.72;5091872;28;20024;-75
2023/03/17 05:59:18;;;;;;;4.03;2.10;;;;;;;-146.27;83.27;48351.78;5088188;28;20047;-74
2023/03/17 06:01:43;;;;;;;5.10;2.40;;;;;;;-146.27;83.17;48355.78;5083444;28;20052;-73
2023/03/17 06:04:09;;;;;;;4.38;2.38;;;;;;;-146.27;83.09;48375.69;5082608;28;20039;-74
2023/03/17 06:06:35;;;;;;;5.65;2.30;;;;;;;-146.27;82.90;48373.69;5073484;28;20056;-75
2023/03/17 06:09:01;;;;;;;3.88;2.13;;;;;;;-146.27;82.64;48343.81;5082391;28;20039;-75
2023/03/17 06:11:27;;;;;;;6.60;2.42;;;;;;;-146.27;82.56;48343.81;5086298;28;20506;-73
2023/03/17 06:13:52;;;;;;;3.13;2.25;;;;;;;-146.27;82.63;48337.84;5082515;28;20024;-74
2023/03/17 06:16:18;;;;;;;4.85;2.15;;;;;;;-146.27;82.34;48347.81;5080109;28;20028;-75
2023/03/17 06:18:44;;;;;;;5.20;2.55;;;;;;;-146.27;82.14;48319.91;5082724;28;20379;-75
2023/03/17 06:21:11;;;;;;;3.15;2.03;;;;;;;-146.27;82.27;48323.91;5081527;28;20029;-74
2023/03/17 06:23:36;;;;;;;6.45;2.97;;;;;;;-146.27;81.86;48331.88;5082206;28;20383;-74
2023/03/17 06:26:03;;;;;;;3.97;2.30;;;;;;;-146.27;82.04;48347.81;5081266;28;20028;-75
2023/03/17 06:28:28;;;;;;;4.80;2.28;;;;;;;-146.27;82.04;48331.88;5083190;28;20029;-74
2023/03/17 06:30:53;;;;;;;4.38;2.10;;;;;;;-146.27;81.98;48351.78;5086165;28;20024;-75
2023/03/17 06:33:19;;;;;;;4.00;2.30;;;;;;;-146.27;81.94;48349.78;5078275;28;20365;-74
2023/03/17 06:35:44;;;;;;;4.95;2.38;;;;;;;-146.27;81.76;48351.78;5080904;28;20028;-74
2023/03/17 06:38:10;;;;;;;4.45;2.47;;;;;;;-146.27;81.41;48371.69;5082635;28;20080;-74
2023/03/17 06:40:35;;;;;;;4.05;2.20;;;;;;;-146.27;81.21;48333.88;5087432;28;20017;-74
2023/03/17 06:43:01;;;;;;;8.90;2.80;;;;;;;-146.27;80.75;48319.91;5081959;28;20036;-73
2023/03/17 06:45:27;;;;;;;5.55;2.47;;;;;;;-146.27;80.46;48315.94;5084639;28;20041;-73
2023/03/17 06:47:53;;;;;;;8.70;3.05;;;;;;;-146.27;80.37;48331.88;5082933;28;20487;-74
2023/03/17 06:50:18;;;;;;;3.65;2.60;;;;;;;-146.27;79.99;48375.69;5078531;28;20526;-75
2023/03/17 06:52:44;;;;;;;4.38;2.85;;;;;;;-146.27;79.81;48333.88;5081834;28;20020;-74
2023/03/17 06:55:10;;;;;;;4.90;2.92;;;;;;;-146.27;79.47;48349.78;5082501;28;20039;-73
2023/03/17 06:57:36;;;;;;;8.65;3.13;;;;;;;-146.27;79.51;48331.88;5098156;28;20395;-75
2023/03/17 07:00:05;;;;;;;7.95;2.92;;;;;;;-146.27;79.23;48341.81;5077674;28;20032;-74
2023/03/17 07:02:31;;;;;;;5.65;2.58;;;;;;;-146.27;79.11;48375.69;5085999;28;20055;-74
2023/03/17 07:04:56;;;;;;;4.93;2.42;;;;;;;-146.27;78.64;48307.97;5079927;28;20032;-73
2023/03/17 07:07:23;;;;;;;3.65;2.38;;;;;;;-146.27;78.41;48315.94;5084007;28;20436;-74
2023/03/17 07:09:50;;;;;;;3.38;2.35;;;;;;;-146.27;78.52;48375.69;5084110;28;20035;-74
2023/03/17 07:12:15;;;;;;;7.63;2.92;;;;;;;-146.27;78.22;48341.81;5086389;28;20440;-73
2023/03/17 07:14:41;;;;;;;5.55;2.67;;;;;;;-146.27;78.28;48321.91;5094939;28;20211;-73
2023/03/17 07:17:06;;;;;;;4.85;2.80;;;;;;;-146.27;78.31;48307.97;5079462;28;20031;-74
2023/03/17 07:19:32;;;;;;;6.35;2.92;;;;;;;-146.27;78.78;48339.84;5075336;28;20036;-74
2023/03/17 07:21:58;;;;;;;5.72;2.85;;;;;;;-146.27;78.57;48343.81;5085415;28;20020;-74
2023/03/17 07:24:24;;;;;;;5.00;3.05;;;;;;;-146.27;78.32;48315.94;5082288;28;20024;-74
2023/03/17 07:26:50;;;;;;;6.65;3.15;;;;;;;-146.27;79.39;48363.75;5085059;28;20151;-74
2023/03/17 07:29:16;;;;;;;5.43;2.78;;;;;;;-146.27;79.47;48345.81;5082129;28;20107;-73
2023/03/17 07:31:43;;;;;;;5.80;2.80;;;;;;;-146.27;78.99;48361.75;5080228;28;20420;-73
2023/03/17 07:34:09;;;;;;;8.02;3.17;;;;;;;-146.27;78.76;48351.78;5079787;28;20815;-73
2023/03/17 07:36:35;;;;;;;4.22;2.80;;;;;;;-146.27;78.39;48337.84;5081839;28;20032;-73
2023/03/17 07:39:01;;;;;;;10.25;3.38;;;;;;;-146.27;77.97;48315.94;5086539;28;20085;-74
2023/03/17 07:41:27;;;;;;;10.02;3.47;;;;;;;-146.27;77.40;48347.81;5081339;28;20046;-73
2023/03/17 07:43:53;;;;;;;5.05;2.80;;;;;;;-146.27;76.51;48343.81;5080891;28;20018;-74
2023/03/17 07:46:18;;;;;;;8.75;2.72;;;;;;;-146.27;76.22;48325.91;5079607;28;20480;-74
2023/03/17 07:48:43;;;;;;;10.65;2.70;;;;;;;-146.27;76.16;48333.88;5097413;28;20375;-73
2023/03/17 07:51:13;;;;;;;6.68;3.10;;;;;;;-146.27;75.47;48343.81;5084957;28;20190;-74
2023/03/17 07:53:38;;;;;;;4.88;2.80;;;;;;;-146.27;74.90;48343.81;5101807;28;20035;-73
2023/03/17 07:56:04;;;;;;;5.25;3.10;;;;;;;-146.27;74.55;48331.88;5095628;28;20028;-74
2023/03/17 07:58:30;;;;;;;7.28;3.85;;;;;;;-146.27;74.22;48319.91;5086461;28;20478;-73
2023/03/17 08:00:56;;;;;;;5.00;3.03;;;;;;;-146.27;74.28;48363.75;5095937;27;20540;-73
2023/03/17 08:03:22;;;;;;;6.60;2.70;;;;;;;-146.27;73.97;48325.91;5096865;28;20728;-73
2023/03/17 08:05:52;;;;;;;6.20;3.22;;;;;;;-146.27;73.43;48355.78;5083681;28;20120;-74
2023/03/17 08:08:20;;;;;;;6.18;3.38;;;;;;;-146.27;73.15;48343.81;5101170;28;20403;-73
2023/03/17 08:10:45;;;;;;;4.55;2.78;;;;;;;-146.27;72.81;48347.81;5093508;28;20035;-74
2023/03/17 08:13:11;;;;;;;6.60;3.10;;;;;;;-146.27;72.06;48343.81;5086222;28;20027;-75
2023/03/17 08:15:36;;;;;;;4.95;3.00;;;;;;;-146.27;71.56;48327.88;5093559;28;20024;-75
2023/03/17 08:18:02;;;;;;;7.55;3.95;;;;;;;-146.27;70.72;48327.88;5090480;28;20482;-76
2023/03/17 08:20:28;;;;;;;5.05;2.88;;;;;;;-146.27;70.46;48327.88;5084709;28;20024;-75
2023/03/17 08:22:54;;;;;;;7.45;3.45;;;;;;;-146.27;69.63;48331.88;5086024;28;20044;-76
2023/03/17 08:25:20;;;;;;;7.47;3.20;;;;;;;-146.27;69.27;48288.06;5099926;28;20501;-76
2023/03/17 08:27:46;;;;;;;5.90;3.15;;;;;;;-146.27;68.67;48323.91;5088032;28;20043;-75
2023/03/17 08:30:11;;;;;;;7.85;4.50;;;;;;;-146.27;68.18;48351.78;5092021;28;20036;-76
2023/03/17 08:32:37;;;;;;;7.35;3.15;;;;;;;-146.27;67.70;48341.81;5090183;28;20051;-76
2023/03/17 08:35:05;;;;;;;5.15;3.10;;;;;;;-146.27;67.00;48351.78;5096165;28;20459;-74
2023/03/17 08:37:31;;;;;;;7.22;3.72;;;;;;;-146.27;65.91;48313.94;5101258;28;20512;-76
2023/03/17 08:39:56;;;;;;;13.60;3.75;;;;;;;-146.27;65.95;48339.84;5107267;28;20031;-76
2023/03/17 08:42:22;;;;;;;8.45;3.50;;;;;;;-146.27;65.67;48309.97;5096400;28;20395;-76
2023/03/17 08:44:48;;;;;;;7.45;3.30;;;;;;;-146.27;66.10;48325.91;5092108;28;20020;-75
2023/03/17 08:47:13;;;;;;;9.65;3.58;;;;;;;-146.27;64.39;48321.91;5085095;28;20186;-76
2023/03/17 08:49:39;;;;;;;7.15;3.30;;;;;;;-146.27;64.04;48323.91;5086289;28;20107;-75
2023/03/17 08:52:05;;;;;;;5.43;3.40;;;;;;;-146.27;63.87;48282.06;5075128;28;20096;-77
2023/03/17 08:54:31;;;;;;;5.32;3.33;;;;;;;-146.27;62.73;48311.94;5097267;28;20470;-77
2023/03/17 08:56:57;;;;;;;10.23;4.10;;;;;;;-146.27;61.69;48327.88;5085400;28;20023;-76
2023/03/17 08:59:23;;;;;;;6.20;3.05;;;;;;;-146.27;61.36;48311.94;5101710;28;20145;-77
2023/03/17 09:01:49;;;;;;;5.30;3.60;;;;;;;-146.27;62.12;48274.09;5081847;28;20095;-76
2023/03/17 09:04:15;;;;;;;8.73;4.13;;;;;;;-146.27;60.29;48284.06;5106400;28;20030;-77
2023/03/17 09:06:41;;;;;;;5.22;3.22;;;;;;;-146.27;59.38;48311.94;5091398;28;20048;-73
2023/03/17 09:09:06;;;;;;;9.82;4.10;;;;;;;-146.27;59.65;48307.97;5082706;28;20034;-77
2023/03/17 09:11:32;;;;;;;5.45;3.47;;;;;;;-146.27;57.88;48315.94;5080930;28;20058;-76
2023/03/17 09:13:59;;;;;;;10.68;3.92;;;;;;;-146.27;57.52;48331.88;5097397;28;20044;-76
2023/03/17 09:16:25;;;;;;;8.68;4.43;;;;;;;-146.27;56.93;48290.03;5088735;28;20172;-77
2023/03/17 09:18:52;;;;;;;9.63;3.70;;;;;;;-146.27;57.49;48278.09;5088528;28;20020;-76
2023/03/17 09:21:17;;;;;;;7.07;3.70;;;;;;;-146.27;56.79;48292.03;5088674;28;20035;-76
2023/03/17 09:23:43;;;;;;;8.63;3.70;;;;;;;-146.27;56.71;48323.91;5087237;28;20020;-76
2023/03/17 09:26:09;;;;;;;5.90;3.80;;;;;;;-146.27;56.12;48311.94;5083879;28;20051;-76
2023/03/17 09:28:34;;;;;;;10.88;3.83;;;;;;;-146.27;55.44;48274.09;5091535;28;20106;-75
2023/03/17 09:31:02;;;;;;;7.82;4.25;;;;;;;-146.27;56.44;48278.09;5097988;28;20089;-76
2023/03/17 09:33:28;;;;;;;7.45;4.03;;;;;;;-146.27;54.92;48296.03;5102445;28;20020;-76
2023/03/17 09:35:55;;;;;;;8.15;3.70;;;;;;;-146.27;54.92;48292.03;5102241;28;20120;-76
2023/03/17 09:38:22;;;;;;;7.10;3.63;;;;;;;-146.27;54.65;48272.13;5085517;28;20029;-75
2023/03/17 09:41:07;;;;;;;14.15;3.80;;;;;;;-146.27;53.61;48303.97;5092368;28;20020;-75
2023/03/17 09:43:35;;;;;;;7.75;3.67;;;;;;;-146.27;54.40;48280.09;5099249;28;20039;-75
2023/03/17 09:46:15;;;;;;;7.28;4.10;;;;;;;-146.27;55.45;48300.00;5083850;28;20028;-73
2023/03/17 09:48:45;;;;;;;9.02;3.53;;;;;;;-146.27;55.89;48272.13;5091268;28;20364;-75
2023/03/17 09:51:15;;;;;;;7.72;4.00;;;;;;;-146.27;56.92;48244.22;5091153;28;20024;-74
2023/03/17 09:53:49;;;;;;;8.07;3.78;;;;;;;-146.27;57.85;48307.97;5081065;28;20025;-75
2023/03/17 09:56:17;;;;;;;5.57;3.50;;;;;;;-146.27;58.03;48266.16;5093596;28;20380;-73
2023/03/17 09:58:51;;;;;;;9.45;3.80;;;;;;;-146.27;58.39;48264.16;5091031;28;20383;-75
2023/03/17 10:01:17;;;;;;;6.65;3.65;;;;;;;-146.27;59.79;48284.06;5077359;28;20020;-76
2023/03/17 10:03:42;;;;;;;6.65;4.07;;;;;;;-146.27;58.51;48284.06;5082094;28;20031;-75
2023/03/17 10:06:29;;;;;;;7.05;3.38;;;;;;;-146.27;58.86;48276.09;5086603;28;20024;-77
2023/03/17 10:09:10;;;;;;;7.53;3.60;;;;;;;-146.27;57.64;48240.25;5080091;28;20386;-77
2023/03/17 10:11:41;;;;;;;8.68;3.70;;;;;;;-146.27;56.39;48284.06;5085691;28;20491;-77
2023/03/17 10:14:13;;;;;;;6.00;3.70;;;;;;;-146.27;55.35;48242.25;5091558;28;20032;-72
2023/03/17 10:16:49;;;;;;;6.82;4.18;;;;;;;-146.27;55.44;48284.06;5090052;28;20055;-72
2023/03/17 10:19:20;;;;;;;15.52;4.07;;;;;;;-146.27;54.25;48272.13;5081756;28;20501;-72
2023/03/17 10:21:52;;;;;;;5.75;3.97;;;;;;;-146.27;54.09;48276.09;5088835;28;20080;-71
2023/03/17 10:24:19;;;;;;;6.82;4.05;;;;;;;-146.27;54.30;48264.16;5097395;28;20528;-72
2023/03/17 10:26:49;;;;;;;6.65;3.83;;;;;;;-146.27;55.87;48278.09;5098912;28;20524;-73
2023/03/17 10:29:21;;;;;;;8.05;4.30;;;;;;;-146.27;56.01;48284.06;5095921;28;20096;-72
2023/03/17 10:31:47;;;;;;;8.15;4.32;;;;;;;-146.27;56.66;48232.28;5088610;28;20062;-72
2023/03/17 10:34:24;;;;;;;7.18;4.15;;;;;;;-146.27;56.27;48264.16;5102650;28;20103;-72
2023/03/17 10:36:54;;;;;;;7.97;4.07;;;;;;;-146.27;55.79;48274.09;5085275;28;20502;-72
2023/03/17 10:39:22;;;;;;;10.43;4.13;;;;;;;-146.27;55.96;48268.13;5078051;28;20472;-72
2023/03/17 10:42:09;;;;;;;8.77;4.18;;;;;;;-146.27;56.05;48278.09;5089092;28;20016;-72
2023/03/17 10:44:42;;;;;;;11.32;4.97;;;;;;;-146.27;56.91;48260.16;5090616;28;20063;-72
2023/03/17 10:47:21;;;;;;;5.80;4.25;;;;;;;-146.27;57.70;48274.09;5088432;28;20467;-72
2023/03/17 10:49:47;;;;;;;10.60;4.38;;;;;;;-146.27;58.74;48266.16;5099624;28;20102;-72
2023/03/17 10:52:19;;;;;;;14.43;4.57;;;;;;;-146.27;58.61;48256.19;5091878;28;20032;-72
2023/03/17 10:54:51;;;;;;;9.73;4.05;;;;;;;-146.27;58.44;48250.22;5086447;28;20439;-72
2023/03/17 10:57:17;;;;;;;7.93;4.50;;;;;;;-146.27;58.39;48284.06;5104612;27;20103;-72
2023/03/17 10:59:52;;;;;;;7.57;4.55;;;;;;;-146.27;58.50;48280.09;5093382;28;20086;-72
2023/03/17 11:02:24;;;;;;;11.45;4.35;;;;;;;-146.27;58.28;48290.03;5089595;28;20656;-72
2023/03/17 11:04:53;;;;;;;7.88;4.38;;;;;;;-146.27;58.00;48264.16;5104807;28;20063;-72
2023/03/17 11:07:29;;;;;;;11.88;4.75;;;;;;;-146.27;57.83;48264.16;5092549;28;20040;-72
2023/03/17 11:09:59;;;;;;;5.97;3.95;;;;;;;-146.27;58.15;48256.19;5092036;28;20035;-72
2023/03/17 11:12:35;;;;;;;9.82;3.95;;;;;;;-146.27;58.65;48272.13;5095792;28;20050;-71
2023/03/17 11:15:04;;;;;;;8.32;4.53;;;;;;;-146.27;59.71;48232.28;5103053;27;20054;-71
2023/03/17 11:17:46;;;;;;;10.95;3.92;;;;;;;-146.27;59.84;48272.13;5098071;28;20059;-71